Latest Weather Observations for Central Arnhem Plateau

IDD60801

Issued at 10:01 pm CST Thursday 18 December 2014 (issued every 30 minutes, with the page automatically refreshed every 10 minutes)

About weather observations | Map of weather stations | Latest weather observations for NT | Other Formats
Station Details ID: 014909 Name: CENTRAL ARNHEM PLATEAU Lat: -13.33 Lon: 133.09 Height: 416.0 m
Data from the previous 72 hours. | See also: Recent months for locations in Northern Territory
Date/Time
CST
Temp
°C
App
Temp
°C
Dew
Point
Rel
Hum
%
Delta-T
°C
Wind Press
QNH
hPa
Press
MSL
hPa
Rain
since 9 am
mm
Dir
 
Spd
km/h
Gust
km/h
Spd
kts
Gust
kts
18/10:00pm 26.6 29.8 21.6 74 3.4 NW 7 11 4 6 1011.8 1008.6 0.0
18/09:30pm 26.6 28.5 21.4 73 3.5 N 13 20 7 11 1011.6 1008.4 0.0
18/09:00pm 28.1 30.3 21.1 65 4.7 NNW 11 15 6 8 1011.5 1008.3 0.0
18/08:30pm 28.5 31.0 21.0 64 5.1 NW 9 11 5 6 1010.9 1007.8 0.0
18/08:00pm 29.3 32.3 21.3 62 5.4 NNW 7 11 4 6 1010.4 1007.3 0.0
18/07:30pm 29.6 33.1 22.1 64 5.2 WSW 7 11 4 6 1010.1 1007.0 0.0
18/07:00pm 29.9 33.2 21.8 62 5.5 SW 7 11 4 6 1009.7 1006.5 0.0
18/06:30pm 30.6 33.9 21.9 59 6.0 SW 7 9 4 5 1008.9 1005.7 0.0
18/06:00pm 30.9 33.8 21.7 58 6.3 SW 9 13 5 7 1009.2 1006.0 0.0
18/05:30pm 31.2 33.9 22.2 58 6.2 SSW 11 15 6 8 1008.9 1005.7 0.0
18/05:00pm 31.4 34.9 22.1 57 6.4 WSW 7 11 4 6 1008.7 1005.6 0.0
18/04:30pm 30.1 34.0 21.2 59 6.1 WSW 2 13 1 7 1008.5 1005.4 0.0
18/04:00pm 29.5 30.2 18.9 53 7.0 WSW 13 24 7 13 1008.7 1005.6 0.0
18/03:40pm 29.9 29.5 22.3 63 5.2 SE 28 46 15 25 1009.4 1006.2 0.0
18/03:30pm 32.1 34.1 20.0 48 8.1 SW 9 15 5 8 1009.8 1006.6 0.0
18/03:00pm 32.6 34.2 21.5 52 7.6 W 15 20 8 11 1009.5 1006.3 0.0
18/02:30pm 31.5 32.9 21.1 54 7.1 WSW 15 22 8 12 1010.1 1007.0 0.0
18/02:00pm 32.1 33.5 22.8 58 6.5 SW 20 28 11 15 1010.4 1007.3 0.0
18/01:30pm 33.1 35.1 19.9 45 8.9 WNW 9 15 5 8 1010.7 1007.6 0.0
18/01:00pm 32.6 33.6 19.5 46 8.8 WNW 13 19 7 10 1011.2 1008.1 0.0
18/12:30pm 31.9 33.2 20.2 50 7.9 NW 13 19 7 10 1011.7 1008.5 0.0
18/12:00pm 31.5 34.0 21.7 56 6.7 N 11 19 6 10 1012.1 1008.9 0.0
18/11:30am 31.1 32.8 21.0 55 6.9 W 13 20 7 11 1012.3 1009.2 0.0
18/11:00am 30.6 32.9 21.4 58 6.3 WNW 11 19 6 10 1012.8 1009.7 0.0
18/10:30am 30.1 32.4 22.0 62 5.6 W 13 17 7 9 1012.8 1009.7 0.0
18/10:00am 29.4 32.0 21.9 64 5.1 W 11 15 6 8 1012.9 1009.8 0.0
18/09:30am 28.7 31.3 22.7 70 4.1 WNW 13 20 7 11 1012.9 1009.8 0.0
18/09:00am 27.7 30.8 22.2 72 3.8 WNW 9 17 5 9 1012.8 1009.7 4.6
18/08:30am 27.3 30.3 22.7 76 3.2 W 11 17 6 9 1012.5 1009.4 4.6
18/08:00am 26.8 29.4 22.6 78 2.9 W 13 17 7 9 1012.1 1008.9 4.6
18/07:30am 26.3 29.5 22.4 79 2.7 W 9 15 5 8 1011.6 1008.4 4.6
18/07:00am 25.7 30.2 22.2 81 2.4 WNW 2 9 1 5 1011.0 1007.9 4.6
18/06:30am 24.6 28.9 21.1 81 2.3 CALM 0 0 0 0 1010.6 1007.5 4.6
18/06:00am 24.4 28.6 20.9 81 2.3 CALM 0 0 0 0 1010.4 1007.3 4.6
18/05:30am 24.4 28.6 20.9 81 2.3 CALM 0 2 0 1 1010.1 1007.0 4.6
18/05:00am 24.5 28.3 21.0 81 2.3 N 2 6 1 3 1009.9 1006.7 4.6
18/04:30am 24.6 28.7 20.7 79 2.6 CALM 0 6 0 3 1009.8 1006.6 4.6
18/04:00am 24.7 28.7 20.6 78 2.7 CALM 0 6 0 3 1009.8 1006.6 4.6
18/03:30am 24.9 27.8 20.6 77 2.9 NNW 6 7 3 4 1009.8 1006.6 4.6
18/03:00am 25.2 28.6 20.2 74 3.3 NNW 2 7 1 4 1009.9 1006.7 4.6
18/02:30am 24.8 27.2 20.1 75 3.1 NW 7 11 4 6 1009.6 1006.4 4.6
18/02:00am 24.9 28.4 19.5 72 3.5 CALM 0 0 0 0 1009.9 1006.7 4.6
18/01:30am 24.5 26.7 19.1 72 3.5 N 6 9 3 5 1009.8 1006.6 4.6
18/01:00am 25.1 27.5 19.7 72 3.5 NNW 6 7 3 4 1009.6 1006.4 4.6
18/12:30am 24.8 26.3 19.0 70 3.8 NNW 9 11 5 6 1010.1 1007.0 4.6
18/12:00am 24.8 26.9 19.0 70 3.8 N 6 9 3 5 1010.3 1007.2 4.6
 
Date/Time
CST
Temp
°C
App
Temp
°C
Dew
Point
Rel
Hum
%
Delta-T
°C
Wind Press
QNH
hPa
Press
MSL
hPa
Rain
since 9 am
mm
Dir
 
Spd
km/h
Gust
km/h
Spd
kts
Gust
kts
17/11:30pm 25.2 27.3 19.3 70 3.9 NNW 7 9 4 5 1010.7 1007.6 4.6
17/11:00pm 25.5 28.6 19.6 70 3.9 NNW 2 9 1 5 1010.9 1007.8 4.6
17/10:30pm 25.5 26.8 19.4 69 4.0 WNW 11 15 6 8 1010.5 1007.4 4.6
17/10:00pm 25.7 27.1 19.6 69 4.0 WNW 11 15 6 8 1010.6 1007.5 4.6
17/09:30pm 25.7 27.6 20.5 73 3.5 WNW 11 15 6 8 1010.7 1007.6 4.6
17/09:00pm 25.6 27.4 21.1 76 3.0 WNW 13 17 7 9 1010.4 1007.3 4.6
17/08:30pm 26.4 27.6 20.0 68 4.2 WNW 13 19 7 10 1010.1 1007.0 4.6
17/08:00pm 26.9 29.0 21.0 70 4.0 NW 11 17 6 9 1009.6 1006.4 4.6
17/07:30pm 27.1 28.8 20.9 69 4.2 NW 13 19 7 10 1009.1 1005.9 4.6
17/07:00pm 27.9 29.5 21.4 67 4.4 NW 15 20 8 11 1008.2 1005.1 4.6
17/06:30pm 28.3 28.9 21.1 65 4.9 NNE 19 30 10 16 1007.8 1004.7 4.6
17/06:00pm 28.9 30.3 21.1 62 5.3 NE 15 20 8 11 1007.8 1004.7 4.6
17/05:30pm 29.5 31.4 20.6 58 6.0 ENE 11 15 6 8 1007.7 1004.5 4.6
17/05:00pm 30.6 32.8 19.3 51 7.5 WSW 6 11 3 6 1006.7 1003.5 4.6
17/04:30pm 28.0 30.4 20.0 61 5.3 SW 7 11 4 6 1007.3 1004.1 4.6
17/04:00pm 27.5 29.6 20.1 64 4.9 W 9 19 5 10 1006.9 1003.7 4.6
17/03:30pm 26.4 27.9 20.5 70 3.9 NNW 13 19 7 10 1007.5 1004.3 4.6
17/03:00pm 25.7 26.7 22.8 84 2.0 NNW 22 44 12 24 1007.4 1004.2 4.2
17/02:44pm 24.8 22.7 19.0 70 3.8 NE 28 54 15 29 1007.1 1003.9 1.2
17/02:40pm 28.0 28.9 19.2 58 5.8 NNE 13 43 7 23 1006.9 1003.7 0.0
17/02:30pm 34.1 34.7 17.8 38 10.7 W 11 20 6 11 1007.3 1004.1 0.0
17/02:00pm 34.3 34.8 18.3 38 10.6 WSW 13 22 7 12 1007.9 1004.8 0.0
17/01:30pm 33.6 33.0 18.5 40 10.0 W 19 24 10 13 1008.3 1005.2 0.0
17/01:00pm 33.2 33.8 18.5 41 9.7 WNW 13 20 7 11 1009.3 1006.1 0.0
17/12:30pm 32.9 33.3 19.0 43 9.2 WNW 15 22 8 12 1010.0 1006.9 0.0
17/12:00pm 32.7 33.5 19.9 46 8.6 NW 15 20 8 11 1010.2 1007.1 0.0
17/11:30am 31.6 32.6 20.2 50 7.7 W 15 26 8 14 1010.6 1007.5 0.0
17/11:00am 31.2 31.5 19.5 49 7.8 WNW 17 24 9 13 1010.9 1007.8 0.0
17/10:30am 31.2 31.7 20.8 54 7.0 W 19 28 10 15 1011.1 1008.0 0.0
17/10:00am 30.8 32.6 21.9 59 6.1 W 15 19 8 10 1011.1 1008.0 0.0
17/09:30am 29.2 30.4 21.4 63 5.3 WNW 17 24 9 13 1011.1 1008.0 0.0
17/09:00am 28.4 29.2 21.4 66 4.7 WNW 19 28 10 15 1010.9 1007.8 0.0
17/08:30am 28.5 30.4 22.7 71 4.0 W 17 22 9 12 1011.1 1008.0 0.0
17/08:00am 27.8 29.7 22.7 74 3.5 WNW 17 24 9 13 1010.7 1007.6 0.0
17/07:30am 26.8 28.4 22.8 79 2.8 WNW 19 26 10 14 1010.4 1007.3 0.0
17/07:00am 26.5 29.1 22.6 79 2.7 WNW 13 20 7 11 1010.2 1007.1 0.0
17/06:30am 26.1 28.7 22.6 81 2.4 NW 13 19 7 10 1009.9 1006.7 0.0
17/06:00am 26.0 28.9 22.5 81 2.4 NW 11 15 6 8 1009.7 1006.5 0.0
17/05:30am 26.1 29.1 22.6 81 2.4 NW 11 17 6 9 1009.1 1005.9 0.0
17/05:00am 26.2 29.5 22.5 80 2.5 WNW 9 13 5 7 1009.0 1005.8 0.0
17/04:30am 26.3 29.6 22.6 80 2.5 WNW 9 13 5 7 1008.5 1005.4 0.0
17/04:00am 26.4 29.4 22.7 80 2.5 NW 11 15 6 8 1008.3 1005.2 0.0
17/03:30am 26.5 29.5 22.6 79 2.7 NW 11 15 6 8 1008.4 1005.3 0.0
17/03:00am 26.7 29.0 22.8 79 2.7 NW 15 20 8 11 1008.5 1005.4 0.0
17/02:30am 26.7 29.4 22.8 79 2.7 NW 13 20 7 11 1008.6 1005.5 0.0
17/02:00am 26.8 29.4 22.6 78 2.9 NW 13 19 7 10 1008.5 1005.4 0.0
17/01:30am 26.9 29.0 22.5 77 3.0 NW 15 20 8 11 1008.7 1005.6 0.0
17/01:00am 27.1 28.9 22.5 76 3.2 NW 17 24 9 13 1009.5 1006.3 0.0
17/12:30am 27.3 28.8 22.0 73 3.6 NW 17 26 9 14 1009.6 1006.4 0.0
17/12:00am 27.5 29.1 21.5 70 4.1 WNW 15 20 8 11 1009.8 1006.6 0.0
 
Date/Time
CST
Temp
°C
App
Temp
°C
Dew
Point
Rel
Hum
%
Delta-T
°C
Wind Press
QNH
hPa
Press
MSL
hPa
Rain
since 9 am
mm
Dir
 
Spd
km/h
Gust
km/h
Spd
kts
Gust
kts
16/11:30pm 27.8 28.7 20.9 66 4.6 NW 17 24 9 13 1009.7 1006.5 0.0
16/11:00pm 28.2 28.5 19.7 60 5.6 NW 17 22 9 12 1009.6 1006.4 0.0
16/10:30pm 28.5 28.9 19.1 56 6.2 WNW 15 20 8 11 1009.6 1006.4 0.0
16/10:00pm 28.8 29.9 18.9 55 6.5 NNW 11 15 6 8 1009.3 1006.1 0.0
16/09:30pm 29.1 30.4 19.4 55 6.4 WNW 11 17 6 9 1009.1 1005.9 0.0
16/09:00pm 28.7 30.7 19.9 59 5.9 NNW 9 13 5 7 1009.0 1005.8 0.0
16/08:30pm 29.0 31.0 20.7 61 5.6 NW 11 20 6 11 1008.7 1005.6 0.0
16/08:00pm 29.2 31.3 20.1 58 6.1 NW 9 11 5 6 1008.5 1005.4 0.0
16/07:30pm 29.0 31.0 20.7 61 5.6 NNW 11 15 6 8 1008.1 1005.0 0.0
16/07:00pm 28.9 31.8 21.1 62 5.3 NE 7 11 4 6 1008.0 1004.9 0.0
16/06:30pm 29.2 32.8 20.6 59 5.8 S 2 6 1 3 1007.5 1004.3 0.0
16/06:00pm 29.0 31.9 20.7 61 5.6 WSW 6 11 3 6 1007.2 1004.0 0.0
16/05:30pm 29.7 32.6 21.1 60 5.8 S 7 11 4 6 1007.3 1004.1 0.0
16/05:00pm 29.8 31.6 20.4 57 6.3 W 11 20 6 11 1007.2 1004.0 0.0
16/04:30pm 29.6 31.4 19.6 55 6.7 SSW 9 13 5 7 1006.8 1003.6 0.0
16/04:00pm 29.7 30.5 19.1 53 7.0 S 13 22 7 12 1007.5 1004.3 0.0
16/03:30pm 28.6 27.1 20.3 60 5.6 SSW 28 37 15 20 1007.5 1004.3 0.0
16/03:22pm 30.1 30.1 19.8 54 6.9 S 19 35 10 19 1007.8 1004.7 0.0
16/03:00pm 31.6 33.7 20.2 50 7.7 ESE 9 13 5 7 1007.7 1004.5 0.0
16/02:30pm 33.4 34.6 19.8 44 9.2 WNW 13 20 7 11 1008.0 1004.9 0.0
16/02:00pm 34.7 36.1 21.0 44 9.4 WNW 15 30 8 16 1008.5 1005.4 0.0
16/01:30pm 33.5 34.0 19.2 43 9.6 WNW 15 24 8 13 1009.1 1005.9 0.0
16/01:00pm 33.6 34.6 21.1 48 8.5 WNW 17 26 9 14 1009.6 1006.4 0.0
16/12:30pm 32.3 33.1 19.9 48 8.3 WNW 15 20 8 11 1010.1 1007.0 0.0
16/12:00pm 31.8 32.7 20.1 50 7.9 W 15 22 8 12 1010.6 1007.5 0.0
16/11:30am 31.7 32.9 20.6 51 7.5 NW 15 20 8 11 1010.9 1007.8 0.0
16/11:00am 31.5 32.5 21.1 54 7.1 WNW 17 26 9 14 1011.1 1008.0 0.0
16/10:30am 31.1 32.2 21.3 56 6.7 WNW 17 26 9 14 1011.7 1008.5 0.0
16/10:00am 30.8 32.1 21.6 58 6.3 WNW 17 28 9 15 1011.8 1008.6 0.0
16/09:30am 29.8 30.7 21.5 61 5.7 WNW 19 26 10 14 1011.9 1008.7 0.0
16/09:00am 29.4 30.3 21.9 64 5.1 WNW 20 30 11 16 1011.8 1008.6 -
16/08:30am 28.3 29.1 21.8 68 4.4 WNW 20 30 11 16 1011.8 1008.6 -
16/08:00am 27.5 29.1 22.2 73 3.6 WNW 17 26 9 14 1011.8 1008.6 -
16/07:30am 27.3 29.7 22.9 77 3.0 NW 15 22 8 12 1011.2 1008.1 -
16/07:00am 26.6 29.7 22.9 80 2.5 NW 11 19 6 10 1010.9 1007.8 -
16/06:30am 26.3 29.0 22.8 81 2.4 NW 13 19 7 10 1010.6 1007.5 -
16/06:00am 26.2 28.8 22.7 81 2.4 NW 13 20 7 11 1010.3 1007.2 -
16/05:30am 26.3 28.5 22.6 80 2.5 WNW 15 20 8 11 1009.8 1006.6 -
16/05:00am 26.4 29.3 22.5 79 2.7 NW 11 20 6 11 1009.6 1006.4 -
16/04:30am 26.5 28.9 22.3 78 2.9 WNW 13 20 7 11 1009.5 1006.3 -
16/04:00am 26.8 29.7 22.4 77 3.0 NW 11 15 6 8 1009.6 1006.4 -
16/03:30am 26.7 28.7 22.3 77 3.0 WNW 15 20 8 11 1009.6 1006.4 -
16/03:00am 26.7 28.7 22.3 77 3.0 WNW 15 22 8 12 1009.6 1006.4 0.0
16/02:30am 26.7 29.2 22.5 78 2.9 NW 13 17 7 9 1009.6 1006.4 -
16/02:00am 26.5 29.8 22.6 79 2.7 NNW 9 13 5 7 1009.4 1006.2 -
16/01:30am 26.7 29.1 22.3 77 3.0 NNW 13 17 7 9 1009.4 1006.2 -
16/01:00am 26.9 29.7 22.3 76 3.1 NNW 11 17 6 9 1009.8 1006.6 -
16/12:30am 27.1 29.1 22.3 75 3.3 NW 15 20 8 11 1009.9 1006.7 -
16/12:00am 27.4 29.3 22.1 73 3.6 NW 15 22 8 12 1010.0 1006.9 -
 
Date/Time
CST
Temp
°C
App
Temp
°C
Dew
Point
Rel
Hum
%
Delta-T
°C
Wind Press
QNH
hPa
Press
MSL
hPa
Rain
since 9 am
mm
Dir
 
Spd
km/h
Gust
km/h
Spd
kts
Gust
kts
15/11:30pm 27.5 29.8 22.0 72 3.8 NNW 13 22 7 12 1010.2 1007.1 -
15/11:00pm 27.7 29.7 22.2 72 3.8 NW 15 24 8 13 1010.3 1007.2 -
15/10:30pm 27.9 29.3 21.9 70 4.1 NNW 17 26 9 14 1010.1 1007.0 -

Other Formats:

Comma delimited format used in spreadsheet applications
http://www.bom.gov.au/fwo/IDD60801/IDD60801.94141.axf

JavaScript Object Notation format (JSON) in row-major order
http://www.bom.gov.au/fwo/IDD60801/IDD60801.94141.json